VHASH WSSL-WADD
Flight info
| Callsign | VHASH |
|---|---|
| Flight time | N/A |
| Altitude | 29000 |
| Route | SETHI DCT RECHI DCT PONJO DCT SJ DCT IDBUD T24 SURGA DCT GUKNO DCT LAKUN DCT MASRI DCT RAFIS DCT TAVIP DCT SUMDI DCT RAMPY DCT KOLTA |
| Aircraft | TBM8/L-SDFGRWY/S |
Departure
| Time | 2026-05-08 08:40 |
|---|---|
| Airport | Seletar Airport (WSSL) |
Arrival
| Time | N/A |
|---|---|
| Airport | Denpasar I Gusti Ngurah Rai International Airport (WADD) |
| Time | Latitude | Longitude | Altitude | Speed | Heading |
|---|---|---|---|---|---|
| 2026-05-08 07:54 | 1.41393 | 103.86881 | 35 ft | 0 kts | 124° |
| 2026-05-08 08:35 | 1.41391 | 103.86894 | 34 ft | 5 kts | 59° |
| 2026-05-08 08:35 | 1.41437 | 103.86880 | 34 ft | 12 kts | 303° |
| 2026-05-08 08:35 | 1.41484 | 103.86808 | 34 ft | 8 kts | 9° |
| 2026-05-08 08:35 | 1.41548 | 103.86860 | 32 ft | 13 kts | 33° |
| 2026-05-08 08:36 | 1.41633 | 103.86914 | 30 ft | 19 kts | 33° |
| 2026-05-08 08:36 | 1.41767 | 103.87003 | 28 ft | 22 kts | 33° |
| 2026-05-08 08:36 | 1.41893 | 103.87085 | 25 ft | 20 kts | 33° |
| 2026-05-08 08:36 | 1.42012 | 103.87163 | 23 ft | 17 kts | 33° |
| 2026-05-08 08:37 | 1.42110 | 103.87228 | 20 ft | 15 kts | 33° |
| 2026-05-08 08:37 | 1.42184 | 103.87207 | 20 ft | 8 kts | 306° |
| 2026-05-08 08:37 | 1.42185 | 103.87205 | 20 ft | 0 kts | 305° |
| 2026-05-08 08:38 | 1.42187 | 103.87202 | 20 ft | 5 kts | 304° |
| 2026-05-08 08:38 | 1.42227 | 103.87141 | 20 ft | 0 kts | 298° |
| 2026-05-08 08:39 | 1.42231 | 103.87134 | 20 ft | 6 kts | 288° |
| 2026-05-08 08:39 | 1.42216 | 103.87105 | 21 ft | 0 kts | 214° |
| 2026-05-08 08:39 | 1.42199 | 103.87094 | 21 ft | 15 kts | 213° |
| 2026-05-08 08:39 | 1.41966 | 103.86943 | 27 ft | 65 kts | 214° |
| 2026-05-08 08:40 | 1.41465 | 103.86620 | 62 ft | 103 kts | 212° |
| 2026-05-08 08:40 | 1.40832 | 103.86170 | 255 ft | 123 kts | 218° |
| 2026-05-08 08:40 | 1.40134 | 103.85617 | 628 ft | 131 kts | 216° |
| 2026-05-08 08:40 | 1.39383 | 103.85062 | 961 ft | 137 kts | 214° |
| 2026-05-08 08:41 | 1.38551 | 103.84545 | 1333 ft | 143 kts | 212° |
| 2026-05-08 08:41 | 1.37704 | 103.84023 | 1769 ft | 144 kts | 212° |
| 2026-05-08 08:41 | 1.36846 | 103.83492 | 2184 ft | 145 kts | 212° |
| 2026-05-08 08:41 | 1.35982 | 103.82954 | 2603 ft | 147 kts | 212° |
| 2026-05-08 08:42 | 1.35112 | 103.82417 | 3017 ft | 147 kts | 212° |
| 2026-05-08 08:42 | 1.34237 | 103.81875 | 3440 ft | 149 kts | 212° |
| 2026-05-08 08:42 | 1.33360 | 103.81319 | 3849 ft | 149 kts | 213° |
| 2026-05-08 08:42 | 1.32502 | 103.80756 | 4242 ft | 150 kts | 214° |
| 2026-05-08 08:43 | 1.31617 | 103.80173 | 4570 ft | 157 kts | 214° |
| 2026-05-08 08:43 | 1.30675 | 103.79554 | 4810 ft | 167 kts | 214° |
| 2026-05-08 08:43 | 1.29680 | 103.78903 | 5057 ft | 174 kts | 213° |
| 2026-05-08 08:43 | 1.28504 | 103.78439 | 5084 ft | 193 kts | 186° |
| 2026-05-08 08:44 | 1.27145 | 103.78679 | 5104 ft | 207 kts | 155° |
| 2026-05-08 08:44 | 1.26045 | 103.79637 | 5124 ft | 217 kts | 123° |
| 2026-05-08 08:44 | 1.25289 | 103.80969 | 5183 ft | 219 kts | 123° |
| 2026-05-08 08:44 | 1.24472 | 103.82186 | 5452 ft | 215 kts | 126° |
| 2026-05-08 08:45 | 1.23665 | 103.83359 | 6033 ft | 191 kts | 125° |
| 2026-05-08 08:45 | 1.22944 | 103.84431 | 6441 ft | 188 kts | 125° |
| 2026-05-08 08:45 | 1.22188 | 103.85513 | 6717 ft | 190 kts | 128° |
| 2026-05-08 08:45 | 1.21347 | 103.86536 | 7041 ft | 191 kts | 131° |
| 2026-05-08 08:46 | 1.20492 | 103.87555 | 7425 ft | 192 kts | 130° |
| 2026-05-08 08:46 | 1.19640 | 103.88581 | 7776 ft | 192 kts | 130° |
| 2026-05-08 08:46 | 1.18786 | 103.89613 | 8115 ft | 193 kts | 130° |
| 2026-05-08 08:46 | 1.17930 | 103.90647 | 8454 ft | 194 kts | 130° |
| 2026-05-08 08:47 | 1.17070 | 103.91683 | 8795 ft | 194 kts | 130° |
| 2026-05-08 08:47 | 1.16208 | 103.92721 | 9156 ft | 192 kts | 130° |
| 2026-05-08 08:47 | 1.15408 | 103.93686 | 9889 ft | 169 kts | 130° |
| 2026-05-08 08:47 | 1.14684 | 103.94558 | 10313 ft | 166 kts | 130° |
| 2026-05-08 08:48 | 1.13935 | 103.95459 | 10652 ft | 168 kts | 129° |
| 2026-05-08 08:48 | 1.13187 | 103.96360 | 11023 ft | 169 kts | 129° |
| 2026-05-08 08:48 | 1.12437 | 103.97264 | 11391 ft | 169 kts | 129° |
| 2026-05-08 08:48 | 1.11686 | 103.98168 | 11764 ft | 169 kts | 129° |
| 2026-05-08 08:49 | 1.10932 | 103.99077 | 12125 ft | 170 kts | 129° |
| 2026-05-08 08:49 | 1.10173 | 103.99991 | 12491 ft | 171 kts | 129° |
| 2026-05-08 08:49 | 1.09420 | 104.00900 | 12854 ft | 172 kts | 129° |
| 2026-05-08 08:49 | 1.08645 | 104.01834 | 13222 ft | 173 kts | 129° |
| 2026-05-08 08:50 | 1.07887 | 104.02745 | 13582 ft | 174 kts | 129° |
| 2026-05-08 08:50 | 1.07111 | 104.03681 | 13902 ft | 175 kts | 129° |
| 2026-05-08 08:50 | 1.06333 | 104.04618 | 14213 ft | 176 kts | 128° |
| 2026-05-08 08:50 | 1.05552 | 104.05560 | 14526 ft | 176 kts | 128° |
| 2026-05-08 08:51 | 1.04765 | 104.06508 | 14842 ft | 177 kts | 128° |
| 2026-05-08 08:51 | 1.03979 | 104.07455 | 15155 ft | 178 kts | 128° |
| 2026-05-08 08:51 | 1.03188 | 104.08408 | 15470 ft | 178 kts | 128° |
| 2026-05-08 08:51 | 1.02395 | 104.09365 | 15790 ft | 179 kts | 128° |
| 2026-05-08 08:52 | 1.01598 | 104.10325 | 16120 ft | 180 kts | 128° |
| 2026-05-08 08:52 | 1.00798 | 104.11288 | 16457 ft | 180 kts | 128° |
| 2026-05-08 08:52 | 0.99997 | 104.12254 | 16788 ft | 181 kts | 128° |
| 2026-05-08 08:52 | 0.99190 | 104.13227 | 17098 ft | 182 kts | 128° |
| 2026-05-08 08:53 | 0.98389 | 104.14191 | 17404 ft | 183 kts | 128° |
| 2026-05-08 08:53 | 0.97575 | 104.15174 | 17712 ft | 184 kts | 128° |
| 2026-05-08 08:53 | 0.96758 | 104.16159 | 18012 ft | 185 kts | 128° |
| 2026-05-08 08:53 | 0.95936 | 104.17151 | 18287 ft | 185 kts | 128° |
| 2026-05-08 08:54 | 0.95109 | 104.18147 | 18549 ft | 186 kts | 128° |
| 2026-05-08 08:54 | 0.94282 | 104.19143 | 18804 ft | 187 kts | 128° |
| 2026-05-08 08:54 | 0.93452 | 104.20143 | 19062 ft | 188 kts | 127° |
| 2026-05-08 08:54 | 0.92614 | 104.21151 | 19324 ft | 188 kts | 127° |
| 2026-05-08 08:55 | 0.91776 | 104.22162 | 19581 ft | 189 kts | 127° |
| 2026-05-08 08:55 | 0.90934 | 104.23176 | 19834 ft | 190 kts | 127° |
| 2026-05-08 08:55 | 0.90090 | 104.24193 | 20090 ft | 190 kts | 127° |
| 2026-05-08 08:55 | 0.89242 | 104.25215 | 20340 ft | 191 kts | 127° |
| 2026-05-08 08:56 | 0.88401 | 104.26228 | 20586 ft | 192 kts | 127° |
| 2026-05-08 08:56 | 0.87536 | 104.27270 | 20835 ft | 193 kts | 127° |
| 2026-05-08 08:56 | 0.86678 | 104.28303 | 21083 ft | 193 kts | 127° |
| 2026-05-08 08:56 | 0.85829 | 104.29325 | 21321 ft | 194 kts | 127° |
| 2026-05-08 08:57 | 0.84965 | 104.30366 | 21566 ft | 195 kts | 127° |
| 2026-05-08 08:57 | 0.84096 | 104.31413 | 21808 ft | 196 kts | 127° |
| 2026-05-08 08:57 | 0.83224 | 104.32463 | 22044 ft | 196 kts | 127° |
| 2026-05-08 08:57 | 0.82349 | 104.33517 | 22279 ft | 197 kts | 127° |
| 2026-05-08 08:58 | 0.81467 | 104.34580 | 22519 ft | 198 kts | 127° |
| 2026-05-08 08:58 | 0.80586 | 104.35639 | 22756 ft | 199 kts | 127° |
| 2026-05-08 08:58 | 0.79715 | 104.36689 | 22980 ft | 199 kts | 127° |
| 2026-05-08 08:58 | 0.78816 | 104.37772 | 23215 ft | 200 kts | 127° |
| 2026-05-08 08:59 | 0.77924 | 104.38845 | 23433 ft | 201 kts | 127° |
| 2026-05-08 08:59 | 0.77028 | 104.39925 | 23621 ft | 202 kts | 126° |
| 2026-05-08 08:59 | 0.76144 | 104.40990 | 23800 ft | 202 kts | 126° |
| 2026-05-08 08:59 | 0.75245 | 104.42073 | 23991 ft | 203 kts | 126° |
| 2026-05-08 09:00 | 0.74343 | 104.43159 | 24172 ft | 203 kts | 126° |
| 2026-05-08 09:00 | 0.73438 | 104.44248 | 24357 ft | 204 kts | 126° |
| 2026-05-08 09:00 | 0.72531 | 104.45340 | 24541 ft | 204 kts | 126° |
| 2026-05-08 09:00 | 0.71621 | 104.46437 | 24716 ft | 205 kts | 126° |
| 2026-05-08 09:01 | 0.70711 | 104.47532 | 24900 ft | 205 kts | 126° |
| 2026-05-08 09:01 | 0.69799 | 104.48630 | 25080 ft | 206 kts | 126° |
| 2026-05-08 09:01 | 0.68883 | 104.49732 | 25260 ft | 206 kts | 126° |
| 2026-05-08 09:01 | 0.67966 | 104.50836 | 25439 ft | 207 kts | 126° |
| 2026-05-08 09:02 | 0.67044 | 104.51945 | 25617 ft | 207 kts | 126° |
| 2026-05-08 09:02 | 0.66120 | 104.53057 | 25789 ft | 208 kts | 126° |
| 2026-05-08 09:02 | 0.65196 | 104.54169 | 25961 ft | 208 kts | 126° |
| 2026-05-08 09:02 | 0.64281 | 104.55270 | 26130 ft | 209 kts | 126° |
| 2026-05-08 09:03 | 0.63352 | 104.56389 | 26304 ft | 209 kts | 126° |
| 2026-05-08 09:03 | 0.62421 | 104.57510 | 26470 ft | 210 kts | 126° |
| 2026-05-08 09:03 | 0.61489 | 104.58632 | 26639 ft | 210 kts | 126° |
| 2026-05-08 09:03 | 0.60551 | 104.59762 | 26806 ft | 211 kts | 126° |
| 2026-05-08 09:04 | 0.59614 | 104.60890 | 26971 ft | 211 kts | 126° |
| 2026-05-08 09:04 | 0.58675 | 104.62021 | 27138 ft | 212 kts | 126° |
| 2026-05-08 09:04 | 0.57732 | 104.63156 | 27302 ft | 212 kts | 126° |
| 2026-05-08 09:04 | 0.56787 | 104.64293 | 27468 ft | 213 kts | 125° |
| 2026-05-08 09:05 | 0.55854 | 104.65417 | 27623 ft | 213 kts | 125° |
| 2026-05-08 09:05 | 0.54907 | 104.66557 | 27775 ft | 214 kts | 125° |
| 2026-05-08 09:05 | 0.53955 | 104.67703 | 27940 ft | 214 kts | 125° |
| 2026-05-08 09:05 | 0.53004 | 104.68848 | 28098 ft | 215 kts | 125° |
| 2026-05-08 09:06 | 0.52049 | 104.69998 | 28252 ft | 215 kts | 125° |
| 2026-05-08 09:06 | 0.51092 | 104.71151 | 28405 ft | 215 kts | 125° |
| 2026-05-08 09:06 | 0.50136 | 104.72302 | 28563 ft | 216 kts | 125° |
| 2026-05-08 09:06 | 0.49174 | 104.73460 | 28719 ft | 216 kts | 125° |
| 2026-05-08 09:07 | 0.48210 | 104.74622 | 28821 ft | 219 kts | 125° |
| 2026-05-08 09:07 | 0.47221 | 104.75817 | 28823 ft | 227 kts | 125° |
| 2026-05-08 09:07 | 0.46201 | 104.77049 | 28835 ft | 233 kts | 125° |
| 2026-05-08 09:07 | 0.45153 | 104.78315 | 28835 ft | 240 kts | 126° |
| 2026-05-08 09:08 | 0.44085 | 104.79603 | 28834 ft | 246 kts | 126° |
| 2026-05-08 09:08 | 0.42980 | 104.80935 | 28838 ft | 252 kts | 126° |
| 2026-05-08 09:08 | 0.41849 | 104.82296 | 28828 ft | 257 kts | 126° |
| 2026-05-08 09:08 | 0.40699 | 104.83680 | 28835 ft | 261 kts | 126° |
| 2026-05-08 09:09 | 0.39525 | 104.85094 | 28833 ft | 266 kts | 126° |
| 2026-05-08 09:09 | 0.38335 | 104.86525 | 28834 ft | 269 kts | 126° |
| 2026-05-08 09:09 | 0.37132 | 104.87972 | 28833 ft | 272 kts | 126° |
| 2026-05-08 09:09 | 0.35919 | 104.89431 | 28829 ft | 274 kts | 126° |
| 2026-05-08 09:10 | 0.34695 | 104.90903 | 28826 ft | 275 kts | 126° |
| 2026-05-08 09:10 | 0.33468 | 104.92380 | 28824 ft | 276 kts | 126° |
| 2026-05-08 09:10 | 0.32236 | 104.93862 | 28826 ft | 277 kts | 126° |
| 2026-05-08 09:10 | 0.31000 | 104.95349 | 28824 ft | 278 kts | 126° |
| 2026-05-08 09:11 | 0.30179 | 104.96337 | 28823 ft | 279 kts | 126° |
| 2026-05-08 09:11 | 0.28533 | 104.98318 | 28819 ft | 280 kts | 126° |
| 2026-05-08 09:11 | 0.27287 | 104.99818 | 28824 ft | 280 kts | 126° |
| 2026-05-08 09:11 | 0.26041 | 105.01319 | 28824 ft | 281 kts | 126° |
| 2026-05-08 09:12 | 0.24856 | 105.02872 | 28824 ft | 280 kts | 121° |
| 2026-05-08 09:12 | 0.24156 | 105.03950 | 28822 ft | 279 kts | 118° |
| 2026-05-08 09:12 | 0.22850 | 105.06192 | 28819 ft | 280 kts | 117° |
| 2026-05-08 09:12 | 0.22205 | 105.07310 | 28826 ft | 280 kts | 117° |
| 2026-05-08 09:13 | 0.21233 | 105.08994 | 28818 ft | 280 kts | 117° |
| 2026-05-08 09:13 | 0.20258 | 105.10685 | 28817 ft | 281 kts | 117° |
| 2026-05-08 09:13 | 0.19281 | 105.12376 | 28818 ft | 281 kts | 117° |
| 2026-05-08 09:13 | 0.18304 | 105.14067 | 28825 ft | 281 kts | 117° |
| 2026-05-08 09:14 | 0.17325 | 105.15761 | 28823 ft | 281 kts | 117° |
| 2026-05-08 09:14 | 0.16346 | 105.17456 | 28824 ft | 282 kts | 117° |
| 2026-05-08 09:14 | 0.15365 | 105.19151 | 28817 ft | 282 kts | 117° |
| 2026-05-08 09:14 | 0.14383 | 105.20848 | 28822 ft | 282 kts | 117° |
| 2026-05-08 09:15 | 0.13400 | 105.22548 | 28822 ft | 282 kts | 117° |
| 2026-05-08 09:15 | 0.12419 | 105.24246 | 28824 ft | 283 kts | 117° |
| 2026-05-08 09:15 | 0.11434 | 105.25948 | 28819 ft | 283 kts | 117° |
| 2026-05-08 09:15 | 0.10437 | 105.27672 | 28820 ft | 283 kts | 117° |
| 2026-05-08 09:16 | 0.09465 | 105.29354 | 28826 ft | 283 kts | 117° |
| 2026-05-08 09:16 | 0.08413 | 105.31172 | 28824 ft | 283 kts | 117° |
| 2026-05-08 09:16 | 0.07426 | 105.32879 | 28822 ft | 283 kts | 117° |
| 2026-05-08 09:16 | 0.06457 | 105.34555 | 28824 ft | 283 kts | 117° |
| 2026-05-08 09:17 | 0.05469 | 105.36264 | 28818 ft | 283 kts | 117° |
| 2026-05-08 09:17 | 0.04483 | 105.37969 | 28822 ft | 284 kts | 117° |
| 2026-05-08 09:17 | 0.03494 | 105.39679 | 28821 ft | 284 kts | 117° |
| 2026-05-08 09:17 | 0.02506 | 105.41386 | 28825 ft | 284 kts | 117° |
| 2026-05-08 09:18 | 0.01520 | 105.43091 | 28823 ft | 284 kts | 117° |
| 2026-05-08 09:18 | 0.00533 | 105.44799 | 28819 ft | 284 kts | 117° |
| 2026-05-08 09:18 | -0.00458 | 105.46512 | 28820 ft | 284 kts | 117° |
| 2026-05-08 09:18 | -0.01447 | 105.48222 | 28826 ft | 284 kts | 117° |
| 2026-05-08 09:19 | -0.02435 | 105.49931 | 28844 ft | 285 kts | 116° |
| 2026-05-08 09:19 | -0.03415 | 105.51630 | 28848 ft | 286 kts | 117° |
| 2026-05-08 09:19 | -0.04410 | 105.53348 | 28827 ft | 286 kts | 117° |
| 2026-05-08 09:19 | -0.05405 | 105.55067 | 28818 ft | 286 kts | 117° |
| 2026-05-08 09:20 | -0.06394 | 105.56776 | 28816 ft | 286 kts | 117° |
| 2026-05-08 09:20 | -0.07398 | 105.58512 | 28819 ft | 286 kts | 117° |
| 2026-05-08 09:20 | -0.08393 | 105.60233 | 28812 ft | 286 kts | 117° |
| 2026-05-08 09:20 | -0.09388 | 105.61953 | 28817 ft | 286 kts | 117° |
| 2026-05-08 09:21 | -0.10381 | 105.63670 | 28820 ft | 285 kts | 117° |
| 2026-05-08 09:21 | -0.11373 | 105.65387 | 28814 ft | 285 kts | 117° |
| 2026-05-08 09:22 | -0.17314 | 105.75656 | 28816 ft | 285 kts | 117° |
| 2026-05-08 09:23 | -0.18304 | 105.77368 | 28813 ft | 285 kts | 117° |
| 2026-05-08 09:23 | -0.19298 | 105.79087 | 28819 ft | 284 kts | 117° |
| 2026-05-08 09:23 | -0.20289 | 105.80801 | 28817 ft | 284 kts | 117° |
| 2026-05-08 09:23 | -0.21277 | 105.82509 | 28828 ft | 285 kts | 117° |
| 2026-05-08 09:24 | -0.22271 | 105.84228 | 28827 ft | 285 kts | 117° |
| 2026-05-08 09:24 | -0.23263 | 105.85945 | 28822 ft | 285 kts | 117° |
| 2026-05-08 09:24 | -0.24256 | 105.87660 | 28822 ft | 285 kts | 117° |
| 2026-05-08 09:24 | -0.25245 | 105.89372 | 28818 ft | 285 kts | 117° |
| 2026-05-08 09:25 | -0.26237 | 105.91086 | 28820 ft | 285 kts | 117° |
| 2026-05-08 09:25 | -0.27228 | 105.92800 | 28815 ft | 285 kts | 117° |
| 2026-05-08 09:25 | -0.28217 | 105.94510 | 28821 ft | 284 kts | 117° |
| 2026-05-08 09:25 | -0.29207 | 105.96222 | 28821 ft | 284 kts | 117° |
| 2026-05-08 09:26 | -0.30195 | 105.97931 | 28820 ft | 284 kts | 117° |
| 2026-05-08 09:26 | -0.31185 | 105.99643 | 28816 ft | 284 kts | 117° |
| 2026-05-08 09:26 | -0.32174 | 106.01354 | 28822 ft | 284 kts | 117° |
| 2026-05-08 09:26 | -0.33151 | 106.03043 | 28826 ft | 284 kts | 117° |
| 2026-05-08 09:27 | -0.34151 | 106.04772 | 28825 ft | 284 kts | 117° |
| 2026-05-08 09:27 | -0.35128 | 106.06461 | 28824 ft | 284 kts | 117° |
| 2026-05-08 09:27 | -0.36117 | 106.08173 | 28824 ft | 284 kts | 117° |
| 2026-05-08 09:27 | -0.37107 | 106.09884 | 28821 ft | 284 kts | 117° |
| 2026-05-08 09:28 | -0.38095 | 106.11594 | 28814 ft | 284 kts | 117° |
| 2026-05-08 09:28 | -0.39084 | 106.13304 | 28823 ft | 284 kts | 117° |
| 2026-05-08 09:28 | -0.40074 | 106.15015 | 28820 ft | 284 kts | 117° |
| 2026-05-08 09:28 | -0.41060 | 106.16720 | 28816 ft | 284 kts | 117° |
| 2026-05-08 09:29 | -0.42048 | 106.18429 | 28819 ft | 284 kts | 117° |
| 2026-05-08 09:29 | -0.43036 | 106.20138 | 28817 ft | 284 kts | 117° |
| 2026-05-08 09:29 | -0.44025 | 106.21848 | 28812 ft | 284 kts | 117° |
| 2026-05-08 09:29 | -0.45011 | 106.23555 | 28818 ft | 284 kts | 117° |
| 2026-05-08 09:30 | -0.46000 | 106.25266 | 28822 ft | 284 kts | 117° |
| 2026-05-08 09:30 | -0.46989 | 106.26975 | 28817 ft | 284 kts | 117° |
| 2026-05-08 09:30 | -0.47977 | 106.28683 | 28820 ft | 284 kts | 117° |
| 2026-05-08 09:30 | -0.48964 | 106.30390 | 28813 ft | 284 kts | 117° |
| 2026-05-08 09:31 | -0.49940 | 106.32079 | 28822 ft | 284 kts | 117° |
| 2026-05-08 09:31 | -0.50942 | 106.33811 | 28819 ft | 284 kts | 117° |
| 2026-05-08 09:31 | -0.51929 | 106.35519 | 28823 ft | 284 kts | 117° |
| 2026-05-08 09:31 | -0.52917 | 106.37228 | 28823 ft | 284 kts | 117° |
| 2026-05-08 09:32 | -0.53906 | 106.38940 | 28825 ft | 284 kts | 117° |
| 2026-05-08 09:32 | -0.54893 | 106.40647 | 28827 ft | 284 kts | 117° |
| 2026-05-08 09:32 | -0.55881 | 106.42357 | 28826 ft | 284 kts | 117° |
| 2026-05-08 09:32 | -0.56871 | 106.44069 | 28824 ft | 284 kts | 117° |
| 2026-05-08 09:33 | -0.57860 | 106.45781 | 28822 ft | 284 kts | 117° |
| 2026-05-08 09:33 | -0.58849 | 106.47491 | 28824 ft | 284 kts | 117° |
| 2026-05-08 09:33 | -0.59823 | 106.49177 | 28821 ft | 284 kts | 117° |
| 2026-05-08 09:33 | -0.60817 | 106.50890 | 28820 ft | 285 kts | 118° |
| 2026-05-08 09:34 | -0.61928 | 106.52534 | 28823 ft | 286 kts | 124° |
| 2026-05-08 09:34 | -0.63239 | 106.54036 | 28823 ft | 288 kts | 129° |
| 2026-05-08 09:34 | -0.64582 | 106.55514 | 28823 ft | 287 kts | 128° |
| 2026-05-08 09:34 | -0.65903 | 106.57015 | 28819 ft | 287 kts | 128° |
| 2026-05-08 09:35 | -0.67217 | 106.58518 | 28821 ft | 287 kts | 128° |
| 2026-05-08 09:35 | -0.68534 | 106.60022 | 28818 ft | 288 kts | 128° |
| 2026-05-08 09:35 | -0.69856 | 106.61525 | 28820 ft | 288 kts | 128° |
| 2026-05-08 09:35 | -0.71179 | 106.63024 | 28820 ft | 288 kts | 128° |
| 2026-05-08 09:36 | -0.72505 | 106.64523 | 28823 ft | 288 kts | 128° |
| 2026-05-08 09:36 | -0.73832 | 106.66021 | 28821 ft | 288 kts | 128° |
| 2026-05-08 09:36 | -0.75161 | 106.67521 | 28824 ft | 288 kts | 128° |
| 2026-05-08 09:36 | -0.76488 | 106.69018 | 28824 ft | 288 kts | 128° |
| 2026-05-08 09:37 | -0.77815 | 106.70514 | 28823 ft | 288 kts | 128° |
| 2026-05-08 09:37 | -0.79146 | 106.72015 | 28824 ft | 288 kts | 128° |
| 2026-05-08 09:37 | -0.80476 | 106.73513 | 28823 ft | 288 kts | 128° |
| 2026-05-08 09:37 | -0.81805 | 106.75012 | 28822 ft | 288 kts | 128° |
| 2026-05-08 09:38 | -0.83134 | 106.76510 | 28824 ft | 288 kts | 128° |
| 2026-05-08 09:38 | -0.84465 | 106.78010 | 28821 ft | 288 kts | 128° |
| 2026-05-08 09:38 | -0.85777 | 106.79489 | 28825 ft | 288 kts | 128° |
| 2026-05-08 09:38 | -0.87106 | 106.80988 | 28820 ft | 288 kts | 128° |
| 2026-05-08 09:39 | -0.88436 | 106.82487 | 28823 ft | 288 kts | 128° |
| 2026-05-08 09:39 | -0.89769 | 106.83989 | 28822 ft | 288 kts | 128° |
| 2026-05-08 09:39 | -0.91098 | 106.85489 | 28823 ft | 288 kts | 128° |
| 2026-05-08 09:39 | -0.92432 | 106.86992 | 28823 ft | 288 kts | 128° |
| 2026-05-08 09:40 | -0.93760 | 106.88490 | 28826 ft | 288 kts | 128° |
| 2026-05-08 09:40 | -0.95091 | 106.89990 | 28824 ft | 288 kts | 128° |
| 2026-05-08 09:40 | -0.96423 | 106.91491 | 28820 ft | 288 kts | 128° |
| 2026-05-08 09:40 | -0.97755 | 106.92993 | 28822 ft | 288 kts | 128° |
| 2026-05-08 09:41 | -0.99083 | 106.94490 | 28824 ft | 288 kts | 128° |
| 2026-05-08 09:41 | -1.00415 | 106.95992 | 28826 ft | 288 kts | 128° |
| 2026-05-08 09:41 | -1.01746 | 106.97494 | 28823 ft | 288 kts | 128° |
| 2026-05-08 09:41 | -1.03075 | 106.98992 | 28824 ft | 288 kts | 128° |
| 2026-05-08 09:42 | -1.04408 | 107.00495 | 28822 ft | 289 kts | 128° |
| 2026-05-08 09:42 | -1.05739 | 107.01996 | 28821 ft | 289 kts | 128° |
| 2026-05-08 09:42 | -1.07071 | 107.03497 | 28824 ft | 289 kts | 128° |
| 2026-05-08 09:42 | -1.08399 | 107.04995 | 28823 ft | 289 kts | 128° |
| 2026-05-08 09:43 | -1.09733 | 107.06499 | 28824 ft | 289 kts | 128° |
| 2026-05-08 09:43 | -1.11049 | 107.07983 | 28821 ft | 289 kts | 128° |
| 2026-05-08 09:43 | -1.12380 | 107.09484 | 28823 ft | 289 kts | 128° |
| 2026-05-08 09:43 | -1.13713 | 107.10987 | 28820 ft | 289 kts | 128° |
| 2026-05-08 09:44 | -1.15045 | 107.12489 | 28824 ft | 289 kts | 129° |
| 2026-05-08 09:44 | -1.16377 | 107.13991 | 28823 ft | 289 kts | 128° |
| 2026-05-08 09:44 | -1.17710 | 107.15494 | 28825 ft | 289 kts | 128° |
| 2026-05-08 09:44 | -1.19042 | 107.16997 | 28821 ft | 289 kts | 129° |
| 2026-05-08 09:45 | -1.20374 | 107.18498 | 28821 ft | 289 kts | 128° |
| 2026-05-08 09:45 | -1.21709 | 107.20004 | 28824 ft | 289 kts | 128° |
| 2026-05-08 09:45 | -1.23041 | 107.21506 | 28822 ft | 289 kts | 128° |
| 2026-05-08 09:45 | -1.24377 | 107.23013 | 28824 ft | 289 kts | 129° |
| 2026-05-08 09:46 | -1.25710 | 107.24517 | 28824 ft | 289 kts | 129° |
| 2026-05-08 09:46 | -1.27044 | 107.26021 | 28824 ft | 289 kts | 129° |
| 2026-05-08 09:46 | -1.28377 | 107.27524 | 28824 ft | 289 kts | 128° |
| 2026-05-08 09:46 | -1.29711 | 107.29028 | 28825 ft | 289 kts | 129° |
| 2026-05-08 09:47 | -1.31044 | 107.30533 | 28823 ft | 289 kts | 128° |
| 2026-05-08 09:47 | -1.31927 | 107.31528 | 28825 ft | 289 kts | 129° |
| 2026-05-08 09:47 | -1.33713 | 107.33543 | 28823 ft | 289 kts | 129° |
| 2026-05-08 09:47 | -1.34597 | 107.34541 | 28824 ft | 289 kts | 129° |
| 2026-05-08 09:48 | -1.35932 | 107.36046 | 28824 ft | 289 kts | 129° |
| 2026-05-08 09:48 | -1.37264 | 107.37549 | 28824 ft | 289 kts | 128° |
| 2026-05-08 09:48 | -1.38587 | 107.39066 | 28823 ft | 289 kts | 128° |
| 2026-05-08 09:48 | -1.39899 | 107.40590 | 28824 ft | 289 kts | 128° |
| 2026-05-08 09:49 | -1.41210 | 107.42117 | 28825 ft | 289 kts | 128° |
| 2026-05-08 09:49 | -1.42520 | 107.43641 | 28826 ft | 289 kts | 128° |
| 2026-05-08 09:49 | -1.43832 | 107.45166 | 28828 ft | 289 kts | 128° |
| 2026-05-08 09:49 | -1.45143 | 107.46689 | 28823 ft | 289 kts | 128° |
| 2026-05-08 09:50 | -1.46459 | 107.48214 | 28826 ft | 289 kts | 128° |
| 2026-05-08 09:50 | -1.47777 | 107.49742 | 28825 ft | 290 kts | 128° |
| 2026-05-08 09:50 | -1.49092 | 107.51265 | 28824 ft | 290 kts | 128° |
| 2026-05-08 09:50 | -1.50409 | 107.52791 | 28823 ft | 290 kts | 128° |
| 2026-05-08 09:51 | -1.51725 | 107.54317 | 28825 ft | 290 kts | 128° |
| 2026-05-08 09:51 | -1.53042 | 107.55842 | 28821 ft | 290 kts | 128° |
| 2026-05-08 09:51 | -1.54362 | 107.57372 | 28824 ft | 290 kts | 128° |
| 2026-05-08 09:51 | -1.55664 | 107.58880 | 28823 ft | 290 kts | 128° |
| 2026-05-08 09:52 | -1.56981 | 107.60407 | 28826 ft | 290 kts | 128° |
| 2026-05-08 09:52 | -1.58298 | 107.61934 | 28824 ft | 290 kts | 128° |
| 2026-05-08 09:52 | -1.59620 | 107.63466 | 28823 ft | 290 kts | 128° |
| 2026-05-08 09:52 | -1.60939 | 107.64993 | 28822 ft | 291 kts | 128° |
| 2026-05-08 09:53 | -1.62260 | 107.66525 | 28823 ft | 291 kts | 128° |
| 2026-05-08 09:53 | -1.63582 | 107.68057 | 28827 ft | 291 kts | 128° |
| 2026-05-08 09:53 | -1.64903 | 107.69588 | 28822 ft | 291 kts | 128° |
| 2026-05-08 09:53 | -1.66226 | 107.71121 | 28824 ft | 291 kts | 128° |
| 2026-05-08 09:54 | -1.67550 | 107.72654 | 28828 ft | 291 kts | 128° |
| 2026-05-08 09:54 | -1.68873 | 107.74189 | 28827 ft | 291 kts | 128° |
| 2026-05-08 09:54 | -1.70197 | 107.75723 | 28827 ft | 291 kts | 128° |
| 2026-05-08 09:54 | -1.71507 | 107.77242 | 28825 ft | 291 kts | 128° |
| 2026-05-08 09:55 | -1.72830 | 107.78775 | 28828 ft | 291 kts | 128° |
| 2026-05-08 09:55 | -1.74154 | 107.80310 | 28826 ft | 291 kts | 128° |
| 2026-05-08 09:55 | -1.75479 | 107.81845 | 28827 ft | 291 kts | 128° |
| 2026-05-08 09:55 | -1.76801 | 107.83379 | 28825 ft | 291 kts | 128° |
| 2026-05-08 09:56 | -1.78124 | 107.84912 | 28827 ft | 291 kts | 128° |
| 2026-05-08 09:56 | -1.79447 | 107.86445 | 28825 ft | 291 kts | 128° |
| 2026-05-08 09:56 | -1.80771 | 107.87980 | 28828 ft | 291 kts | 128° |
| 2026-05-08 09:56 | -1.82090 | 107.89510 | 28825 ft | 291 kts | 128° |
| 2026-05-08 09:57 | -1.84737 | 107.92578 | 28828 ft | 291 kts | 128° |
| 2026-05-08 09:57 | -1.86061 | 107.94113 | 28825 ft | 291 kts | 128° |
| 2026-05-08 09:57 | -1.87382 | 107.95645 | 28829 ft | 291 kts | 128° |
| 2026-05-08 09:58 | -1.88705 | 107.97179 | 28828 ft | 291 kts | 128° |
| 2026-05-08 09:58 | -1.90028 | 107.98713 | 28828 ft | 291 kts | 128° |
| 2026-05-08 09:58 | -1.91350 | 108.00246 | 28832 ft | 291 kts | 128° |
| 2026-05-08 09:58 | -1.92653 | 108.01757 | 28828 ft | 291 kts | 128° |
| 2026-05-08 09:59 | -1.93976 | 108.03291 | 28828 ft | 291 kts | 128° |
| 2026-05-08 09:59 | -1.95300 | 108.04826 | 28829 ft | 291 kts | 128° |
| 2026-05-08 09:59 | -1.96623 | 108.06360 | 28828 ft | 291 kts | 128° |
| 2026-05-08 09:59 | -1.97941 | 108.07889 | 28826 ft | 291 kts | 128° |
| 2026-05-08 10:00 | -1.99261 | 108.09421 | 28827 ft | 291 kts | 128° |
| 2026-05-08 10:00 | -2.00583 | 108.10954 | 28829 ft | 291 kts | 128° |
| 2026-05-08 10:00 | -2.01903 | 108.12485 | 28833 ft | 291 kts | 128° |
| 2026-05-08 10:00 | -2.03224 | 108.14018 | 28828 ft | 291 kts | 128° |
| 2026-05-08 10:01 | -2.04545 | 108.15550 | 28828 ft | 291 kts | 128° |
| 2026-05-08 10:01 | -2.05868 | 108.17084 | 28829 ft | 291 kts | 128° |
| 2026-05-08 10:01 | -2.07187 | 108.18614 | 28827 ft | 291 kts | 128° |
| 2026-05-08 10:01 | -2.08501 | 108.20137 | 28832 ft | 291 kts | 128° |
| 2026-05-08 10:02 | -2.09824 | 108.21669 | 28828 ft | 291 kts | 128° |
| 2026-05-08 10:02 | -2.11126 | 108.23179 | 28827 ft | 291 kts | 128° |
| 2026-05-08 10:02 | -2.12446 | 108.24708 | 28826 ft | 291 kts | 128° |
| 2026-05-08 10:02 | -2.13770 | 108.26242 | 28827 ft | 291 kts | 128° |
| 2026-05-08 10:03 | -2.15091 | 108.27774 | 28829 ft | 291 kts | 128° |
| 2026-05-08 10:03 | -2.16411 | 108.29304 | 28827 ft | 291 kts | 128° |
| 2026-05-08 10:03 | -2.17733 | 108.30836 | 28827 ft | 291 kts | 129° |
| 2026-05-08 10:03 | -2.19056 | 108.32369 | 28826 ft | 291 kts | 129° |
| 2026-05-08 10:04 | -2.20378 | 108.33901 | 28827 ft | 291 kts | 129° |
| 2026-05-08 10:04 | -2.21701 | 108.35435 | 28830 ft | 291 kts | 129° |
| 2026-05-08 10:04 | -2.23023 | 108.36968 | 28831 ft | 291 kts | 129° |
| 2026-05-08 10:04 | -2.24346 | 108.38502 | 28830 ft | 291 kts | 129° |
| 2026-05-08 10:05 | -2.25669 | 108.40036 | 28831 ft | 291 kts | 129° |
| 2026-05-08 10:05 | -2.26993 | 108.41571 | 28829 ft | 291 kts | 129° |
| 2026-05-08 10:05 | -2.28321 | 108.43110 | 28831 ft | 291 kts | 129° |
| 2026-05-08 10:05 | -2.29629 | 108.44627 | 28831 ft | 291 kts | 129° |
| 2026-05-08 10:06 | -2.30952 | 108.46161 | 28828 ft | 291 kts | 129° |
| 2026-05-08 10:06 | -2.32275 | 108.47695 | 28830 ft | 291 kts | 129° |
| 2026-05-08 10:06 | -2.33597 | 108.49228 | 28827 ft | 291 kts | 129° |
| 2026-05-08 10:06 | -2.34925 | 108.50767 | 28828 ft | 291 kts | 129° |
| 2026-05-08 10:07 | -2.36249 | 108.52303 | 28830 ft | 291 kts | 129° |
| 2026-05-08 10:07 | -2.37574 | 108.53839 | 28828 ft | 291 kts | 129° |
| 2026-05-08 10:07 | -2.38896 | 108.55372 | 28829 ft | 291 kts | 129° |
| 2026-05-08 10:07 | -2.40220 | 108.56907 | 28833 ft | 291 kts | 129° |
| 2026-05-08 10:08 | -2.41545 | 108.58444 | 28832 ft | 291 kts | 129° |
| 2026-05-08 10:08 | -2.42867 | 108.59978 | 28834 ft | 292 kts | 129° |
| 2026-05-08 10:08 | -2.44194 | 108.61517 | 28835 ft | 292 kts | 129° |
| 2026-05-08 10:08 | -2.45523 | 108.63059 | 28832 ft | 292 kts | 129° |
| 2026-05-08 10:09 | -2.46849 | 108.64597 | 28831 ft | 292 kts | 129° |
| 2026-05-08 10:09 | -2.48161 | 108.66118 | 28835 ft | 292 kts | 129° |
| 2026-05-08 10:09 | -2.49486 | 108.67655 | 28832 ft | 292 kts | 129° |
| 2026-05-08 10:09 | -2.50817 | 108.69194 | 28830 ft | 292 kts | 129° |
| 2026-05-08 10:10 | -2.52145 | 108.70728 | 28832 ft | 292 kts | 129° |
| 2026-05-08 10:10 | -2.53476 | 108.72264 | 28833 ft | 292 kts | 129° |
| 2026-05-08 10:10 | -2.54807 | 108.73801 | 28833 ft | 292 kts | 129° |
| 2026-05-08 10:10 | -2.56138 | 108.75338 | 28833 ft | 292 kts | 129° |
| 2026-05-08 10:11 | -2.57468 | 108.76876 | 28832 ft | 292 kts | 129° |
| 2026-05-08 10:11 | -2.58800 | 108.78414 | 28831 ft | 292 kts | 129° |
| 2026-05-08 10:11 | -2.60132 | 108.79955 | 28831 ft | 293 kts | 129° |
| 2026-05-08 10:11 | -2.61464 | 108.81494 | 28832 ft | 293 kts | 129° |
| 2026-05-08 10:12 | -2.62797 | 108.83036 | 28830 ft | 293 kts | 129° |
| 2026-05-08 10:12 | -2.64130 | 108.84576 | 28833 ft | 293 kts | 129° |
| 2026-05-08 10:12 | -2.65460 | 108.86114 | 28832 ft | 293 kts | 129° |
| 2026-05-08 10:12 | -2.66796 | 108.87659 | 28833 ft | 293 kts | 129° |
| 2026-05-08 10:13 | -2.68130 | 108.89201 | 28832 ft | 293 kts | 129° |
| 2026-05-08 10:13 | -2.69467 | 108.90747 | 28831 ft | 293 kts | 129° |
| 2026-05-08 10:13 | -2.70785 | 108.92272 | 28832 ft | 293 kts | 129° |
| 2026-05-08 10:13 | -2.72138 | 108.93836 | 28831 ft | 293 kts | 129° |
| 2026-05-08 10:14 | -2.73457 | 108.95361 | 28833 ft | 293 kts | 129° |
| 2026-05-08 10:14 | -2.74794 | 108.96908 | 28833 ft | 294 kts | 129° |
| 2026-05-08 10:14 | -2.76129 | 108.98451 | 28829 ft | 294 kts | 129° |
| 2026-05-08 10:14 | -2.77465 | 108.99997 | 28835 ft | 294 kts | 129° |
| 2026-05-08 10:15 | -2.78804 | 109.01544 | 28832 ft | 294 kts | 129° |
| 2026-05-08 10:15 | -2.80142 | 109.03093 | 28834 ft | 294 kts | 129° |
| 2026-05-08 10:15 | -2.81479 | 109.04640 | 28833 ft | 294 kts | 129° |
| 2026-05-08 10:15 | -2.82816 | 109.06185 | 28834 ft | 294 kts | 129° |